KSQI/SQI METAR and TAF weather

Enter ICAO airport designator
Station Type Date Time Source
KSQI METAR 2019/06/18 16:47 UTC NOAA

KSQI 181647Z AUTO 11005KT 10SM SCT026 BKN033 24/17 A2997 RMK AO2


Station Type Date Time Source
KSQI Decoded METAR 2019/06/18 16:47 UTC NOAA

Sterling Rockfalls, IL, United States (KSQI) 41-45N 089-40W
Jun 18, 2019 - 12:47 PM EDT / 2019.06.18 1647 UTC
Wind: from the ESE (110 degrees) at 6 MPH (5 KT):0
Visibility: 10 mile(s):0
Sky conditions: mostly cloudy
Temperature: 75 F (24 C)
Dew Point: 62 F (17 C)
Relative Humidity: 64%
Pressure (altimeter): 29.97 in. Hg (1014 hPa)
ob: KSQI 181647Z AUTO 11005KT 10SM SCT026 BKN033 24/17 A2997 RMK AO2
cycle: 17

Station Type Date Time Source
KSQI TAF UTC NOAA

Error!

Example: see airport list